Time;durP1;ratioP1;P1;durP2;ratioP2;P2;SDS_P1;SDS_P2;PMS_P1;PMS_P2;Temp;Humidity;BMP_temperature;BMP_pressure;BME280_temperature;BME280_humidity;BME280_pressure;Samples;Min_cycle;Max_cycle;Signal;HPM_P1;HPM_P2
2021/06/27 00:01:05;;;;;;;18.50;16.67;;;;;;;17.45;99.42;98665.28;4832854;29;103898;-75
2021/06/27 00:03:35;;;;;;;15.48;14.18;;;;;;;17.73;97.31;98661.53;4843996;29;103145;-73
2021/06/27 00:06:05;;;;;;;12.25;11.25;;;;;;;17.94;95.22;98670.00;4845965;29;103308;-74
2021/06/27 00:08:33;;;;;;;13.48;12.38;;;;;;;18.06;93.84;98661.69;4845342;29;103062;-73
2021/06/27 00:11:02;;;;;;;12.63;11.52;;;;;;;18.07;93.80;98660.72;4836890;29;103516;-73
2021/06/27 00:13:31;;;;;;;11.00;10.10;;;;;;;18.12;93.13;98655.72;4832996;29;104339;-74
2021/06/27 00:15:59;;;;;;;18.60;16.75;;;;;;;17.98;93.66;98659.00;4843587;28;103148;-74
2021/06/27 00:18:28;;;;;;;14.13;12.85;;;;;;;18.03;93.31;98656.66;4858001;28;102782;-73
2021/06/27 00:21:00;;;;;;;10.98;9.98;;;;;;;18.00;94.15;98657.00;4845101;28;112353;-74
2021/06/27 00:23:31;;;;;;;17.35;15.63;;;;;;;17.91;93.78;98659.63;4852864;28;104874;-73
2021/06/27 00:26:00;;;;;;;15.23;13.90;;;;;;;17.94;93.76;98667.31;4853705;28;102998;-73
2021/06/27 00:28:29;;;;;;;14.00;12.90;;;;;;;17.91;94.28;98670.31;4865277;28;103060;-73
2021/06/27 00:30:57;;;;;;;12.98;11.75;;;;;;;17.95;93.53;98671.69;4855247;28;105227;-73
2021/06/27 00:33:25;;;;;;;11.93;10.93;;;;;;;18.04;92.78;98671.72;4846263;29;103707;-73
2021/06/27 00:35:54;;;;;;;13.23;12.13;;;;;;;17.98;93.10;98667.84;4845591;29;102694;-74
2021/06/27 00:38:24;;;;;;;12.85;11.50;;;;;;;17.96;93.06;98662.66;4844612;29;103324;-73
2021/06/27 00:40:54;;;;;;;12.55;11.55;;;;;;;18.00;92.63;98663.19;4840192;29;103432;-73
2021/06/27 00:43:22;;;;;;;13.68;12.40;;;;;;;18.05;92.33;98650.16;4845395;29;103692;-73
2021/06/27 00:45:50;;;;;;;13.52;12.43;;;;;;;18.05;91.76;98660.88;4841144;29;102701;-73
2021/06/27 00:48:18;;;;;;;11.48;10.48;;;;;;;18.07;91.28;98663.41;4843091;29;102797;-73
2021/06/27 00:50:49;;;;;;;9.32;8.52;;;;;;;18.07;91.51;98652.69;4843261;29;104978;-74
2021/06/27 00:53:17;;;;;;;12.95;11.85;;;;;;;18.06;92.43;98661.69;4842026;29;103677;-73
2021/06/27 00:55:54;;;;;;;9.93;9.02;;;;;;;18.03;91.71;98662.88;4838407;29;103126;-74
2021/06/27 00:58:27;;;;;;;11.85;10.80;;;;;;;18.06;91.27;98664.38;4827991;29;102809;-73
2021/06/27 01:00:55;;;;;;;14.05;12.75;;;;;;;17.92;93.32;98661.31;4833592;29;104885;-73
2021/06/27 01:03:24;;;;;;;13.70;12.45;;;;;;;17.75;94.35;98656.00;4848326;28;104188;-74
2021/06/27 01:05:52;;;;;;;13.40;12.13;;;;;;;17.70;94.77;98653.81;4856135;28;102923;-76
2021/06/27 01:08:21;;;;;;;18.05;16.23;;;;;;;17.28;97.71;98663.47;4842087;29;103348;-73
2021/06/27 01:10:50;;;;;;;17.98;16.38;;;;;;;17.07;99.59;98668.25;4837117;29;103810;-73
2021/06/27 01:13:21;;;;;;;18.00;16.15;;;;;;;16.95;100.00;98664.16;4846464;28;103695;-73
2021/06/27 01:15:51;;;;;;;19.58;17.67;;;;;;;16.79;100.00;98668.31;4834132;29;103924;-73
2021/06/27 01:18:20;;;;;;;19.67;17.85;;;;;;;16.61;100.00;98667.47;4846436;28;102959;-73
2021/06/27 01:20:48;;;;;;;16.50;15.00;;;;;;;16.95;100.00;98665.00;4839135;28;104227;-73
2021/06/27 01:23:19;;;;;;;13.32;12.07;;;;;;;17.17;98.51;98666.38;4845286;29;103768;-73
2021/06/27 01:25:51;;;;;;;14.05;12.77;;;;;;;17.28;96.64;98669.66;4843724;29;102918;-75
2021/06/27 01:28:20;;;;;;;12.23;11.15;;;;;;;17.35;95.78;98677.84;4835535;29;103142;-74
2021/06/27 01:30:49;;;;;;;13.65;12.45;;;;;;;17.28;96.17;98677.66;4842577;28;103607;-73
2021/06/27 01:33:19;;;;;;;11.77;10.77;;;;;;;17.39;95.28;98677.41;4847907;28;104826;-74
2021/06/27 01:35:49;;;;;;;17.90;16.17;;;;;;;17.21;95.78;98686.41;4844856;28;103184;-73
2021/06/27 01:38:21;;;;;;;13.68;12.55;;;;;;;17.11;96.90;98686.50;4847624;28;103369;-75
2021/06/27 01:40:50;;;;;;;13.95;12.73;;;;;;;17.08;97.66;98685.97;4860716;28;105279;-74
2021/06/27 01:43:21;;;;;;;12.88;11.77;;;;;;;17.15;96.03;98687.03;4856009;28;103216;-73
2021/06/27 01:45:51;;;;;;;14.30;12.85;;;;;;;17.10;96.85;98689.31;4854675;28;102858;-73
2021/06/27 01:48:20;;;;;;;17.98;16.10;;;;;;;17.01;97.78;98690.25;4846005;29;102816;-73
2021/06/27 01:50:50;;;;;;;17.58;15.98;;;;;;;16.87;98.97;98693.44;4844627;29;103880;-73
2021/06/27 01:53:24;;;;;;;14.43;13.23;;;;;;;16.90;98.71;98682.44;4850171;28;103708;-74
2021/06/27 01:56:04;;;;;;;16.42;14.93;;;;;;;16.84;98.58;98673.22;4839196;28;102937;-73
2021/06/27 01:58:34;;;;;;;14.55;13.20;;;;;;;16.85;99.28;98674.88;4827171;29;103636;-73
2021/06/27 02:01:05;;;;;;;15.93;14.43;;;;;;;16.72;99.60;98672.59;4834549;29;104895;-74
2021/06/27 02:03:33;;;;;;;13.23;12.13;;;;;;;16.75;100.00;98674.13;4844352;29;103159;-74
2021/06/27 02:06:01;;;;;;;12.40;11.23;;;;;;;16.72;100.00;98669.06;4846290;29;103052;-73
2021/06/27 02:08:35;;;;;;;10.57;9.68;;;;;;;16.87;98.70;98672.88;4828210;29;103272;-73
2021/06/27 02:11:05;;;;;;;12.02;11.07;;;;;;;16.94;96.96;98675.81;4835915;29;105013;-73
2021/06/27 02:13:34;;;;;;;11.82;10.82;;;;;;;17.03;95.97;98677.56;4836068;29;103788;-74
2021/06/27 02:16:02;;;;;;;11.90;10.90;;;;;;;17.03;95.38;98677.56;4837085;29;103261;-75
2021/06/27 02:18:32;;;;;;;11.32;10.23;;;;;;;17.03;95.39;98661.56;4834605;29;103215;-76
2021/06/27 02:21:04;;;;;;;14.60;13.13;;;;;;;16.91;96.15;98673.44;4843704;29;105303;-74
2021/06/27 02:23:33;;;;;;;13.25;12.02;;;;;;;16.94;96.49;98673.97;4848666;28;105133;-74
2021/06/27 02:26:02;;;;;;;13.63;12.43;;;;;;;16.97;96.01;98679.03;4844840;28;103099;-74
2021/06/27 02:28:30;;;;;;;13.27;11.98;;;;;;;16.87;97.29;98669.41;4856365;28;103048;-74
2021/06/27 02:30:59;;;;;;;16.88;15.27;;;;;;;16.89;95.89;98672.75;4857900;28;103902;-73
2021/06/27 02:33:27;;;;;;;17.20;15.43;;;;;;;16.79;96.08;98667.47;4858289;28;103726;-75
2021/06/27 02:35:56;;;;;;;17.65;16.02;;;;;;;16.51;98.26;98660.44;4846920;29;102797;-73
2021/06/27 02:38:24;;;;;;;16.05;14.63;;;;;;;16.47;99.88;98654.59;4826550;29;103067;-73
2021/06/27 02:40:55;;;;;;;18.27;16.05;;;;;;;16.12;100.00;98644.66;4843283;29;103839;-73
2021/06/27 02:43:24;;;;;;;16.05;14.48;;;;;;;16.33;100.00;98641.75;4848748;28;103754;-74
2021/06/27 02:45:52;;;;;;;16.13;14.60;;;;;;;16.30;100.00;98642.06;4850598;28;103070;-73
2021/06/27 02:48:20;;;;;;;14.88;13.50;;;;;;;16.46;100.00;98644.91;4854478;28;103813;-73
2021/06/27 02:50:48;;;;;;;16.58;14.98;;;;;;;16.23;100.00;98646.28;4857635;28;103377;-73
2021/06/27 02:53:16;;;;;;;14.68;13.48;;;;;;;16.31;100.00;98642.91;4859388;28;103704;-73
2021/06/27 02:55:45;;;;;;;13.98;12.73;;;;;;;16.18;100.00;98637.91;4858029;28;103772;-74
2021/06/27 02:58:14;;;;;;;18.73;16.52;;;;;;;15.79;100.00;98636.38;4864925;28;103415;-73
2021/06/27 03:00:42;;;;;;;16.23;14.32;;;;;;;15.88;100.00;98630.19;4858481;28;104370;-73
2021/06/27 03:03:10;;;;;;;15.75;14.35;;;;;;;15.99;100.00;98627.31;4834692;29;106159;-73
2021/06/27 03:05:38;;;;;;;15.65;14.15;;;;;;;16.14;100.00;98631.19;4848480;28;102923;-73
2021/06/27 03:08:06;;;;;;;14.20;12.85;;;;;;;16.32;100.00;98628.56;4866595;28;103048;-75
2021/06/27 03:10:34;;;;;;;14.25;12.95;;;;;;;16.39;100.00;98629.66;4854885;28;104227;-73
2021/06/27 03:13:03;;;;;;;14.45;12.98;;;;;;;16.33;100.00;98630.25;4862115;28;105132;-74
2021/06/27 03:15:33;;;;;;;15.60;14.20;;;;;;;16.02;100.00;98625.22;4850218;28;103412;-73
2021/06/27 03:18:01;;;;;;;15.80;14.20;;;;;;;16.09;100.00;98626.28;4865859;28;103001;-73
2021/06/27 03:20:29;;;;;;;14.10;12.80;;;;;;;16.24;100.00;98624.84;4846327;28;103432;-73
2021/06/27 03:22:58;;;;;;;15.93;14.48;;;;;;;16.13;100.00;98616.19;4836594;28;103805;-77
2021/06/27 03:25:28;;;;;;;15.50;14.02;;;;;;;16.12;100.00;98611.84;4847989;28;103131;-73
2021/06/27 03:27:56;;;;;;;18.45;16.77;;;;;;;16.07;100.00;98609.63;4861853;28;102578;-73
2021/06/27 03:30:24;;;;;;;15.60;14.10;;;;;;;16.10;100.00;98613.81;4864858;28;103261;-74
2021/06/27 03:32:54;;;;;;;14.65;13.25;;;;;;;16.19;100.00;98602.28;4866368;28;103698;-73
2021/06/27 03:35:22;;;;;;;19.45;17.45;;;;;;;16.02;100.00;98600.41;4852604;28;103651;-73
2021/06/27 03:37:56;;;;;;;13.73;12.43;;;;;;;16.15;100.00;98601.72;4852222;28;103173;-74
2021/06/27 03:40:24;;;;;;;15.77;14.30;;;;;;;16.19;100.00;98603.13;4855134;28;103810;-74
2021/06/27 03:42:52;;;;;;;16.98;15.35;;;;;;;16.21;100.00;98595.81;4861130;28;103821;-75
2021/06/27 03:45:20;;;;;;;15.65;14.30;;;;;;;16.11;100.00;98596.84;4839850;28;102918;-73
2021/06/27 03:47:48;;;;;;;17.92;16.02;;;;;;;16.10;100.00;98592.50;4850228;28;102875;-73
2021/06/27 03:50:19;;;;;;;13.47;12.27;;;;;;;16.20;100.00;98574.63;4852670;28;103919;-73
2021/06/27 03:52:47;;;;;;;12.95;11.75;;;;;;;16.44;100.00;98574.91;4842088;29;104777;-73
2021/06/27 03:55:17;;;;;;;15.20;13.88;;;;;;;16.54;100.00;98574.84;4848972;28;103082;-73
2021/06/27 03:57:45;;;;;;;14.18;12.88;;;;;;;16.58;100.00;98574.41;4865912;28;103015;-73
2021/06/27 04:00:14;;;;;;;15.63;14.23;;;;;;;16.58;100.00;98571.75;4857119;28;103140;-73
2021/06/27 04:02:42;;;;;;;16.40;14.90;;;;;;;16.47;100.00;98577.28;4843863;28;103271;-73
2021/06/27 04:05:12;;;;;;;11.27;10.38;;;;;;;16.67;100.00;98584.16;4857958;28;102762;-74
2021/06/27 04:07:42;;;;;;;9.45;8.63;;;;;;;16.87;100.00;98597.38;4860734;28;103326;-73
2021/06/27 04:10:11;;;;;;;12.98;11.85;;;;;;;17.00;99.42;98609.34;4855665;28;104935;-75
2021/06/27 04:12:40;;;;;;;13.25;12.05;;;;;;;17.03;98.77;98609.03;4855012;28;103852;-88
2021/06/27 04:15:10;;;;;;;11.55;10.55;;;;;;;17.01;100.00;98616.31;4845301;28;102918;-72
2021/06/27 04:17:38;;;;;;;12.25;11.25;;;;;;;17.15;99.03;98618.44;4838151;28;102850;-75
2021/06/27 04:20:09;;;;;;;10.95;10.00;;;;;;;17.24;98.61;98611.34;4829441;28;104981;-74
2021/06/27 04:22:38;;;;;;;9.85;8.95;;;;;;;17.33;97.43;98615.78;4843986;28;103339;-80
2021/06/27 04:25:09;;;;;;;8.82;8.10;;;;;;;17.44;96.38;98622.69;4824527;29;103510;-75
2021/06/27 04:27:38;;;;;;;9.18;8.38;;;;;;;17.47;95.84;98628.56;4842292;28;103123;-75
2021/06/27 04:30:09;;;;;;;14.73;13.43;;;;;;;17.44;96.44;98628.88;4845514;28;104855;-76
2021/06/27 04:32:37;;;;;;;12.50;11.40;;;;;;;17.41;97.56;98629.19;4852970;28;103827;-76
2021/06/27 04:35:07;;;;;;;15.93;14.48;;;;;;;17.09;100.00;98623.59;4835480;29;103393;-76
2021/06/27 04:37:36;;;;;;;12.05;10.95;;;;;;;17.09;100.00;98627.09;4836157;28;102876;-76
2021/06/27 04:40:06;;;;;;;14.20;12.88;;;;;;;17.15;99.50;98639.00;4852035;28;105114;-76
2021/06/27 04:42:35;;;;;;;13.55;12.25;;;;;;;17.25;100.00;98635.25;4846452;28;103739;-76
2021/06/27 04:45:04;;;;;;;9.90;9.10;;;;;;;17.51;98.12;98640.63;4839490;28;103111;-76
2021/06/27 04:47:34;;;;;;;10.70;9.68;;;;;;;17.67;97.59;98635.41;4842342;28;103194;-76
2021/06/27 04:50:02;;;;;;;9.10;8.40;;;;;;;17.82;96.54;98633.03;4856919;28;104500;-76
2021/06/27 04:52:32;;;;;;;10.77;9.88;;;;;;;17.90;96.43;98620.53;4850514;28;104833;-75
2021/06/27 04:55:00;;;;;;;8.23;7.53;;;;;;;18.01;96.45;98615.91;4856659;28;102934;-76
2021/06/27 04:57:28;;;;;;;8.63;7.82;;;;;;;18.12;95.06;98620.97;4838363;29;103359;-75
2021/06/27 04:59:57;;;;;;;9.38;8.57;;;;;;;18.22;94.56;98619.84;4836851;29;103888;-75
2021/06/27 05:02:25;;;;;;;12.90;11.70;;;;;;;18.19;94.56;98628.19;4839056;28;103850;-76
2021/06/27 05:04:53;;;;;;;10.90;9.98;;;;;;;18.22;95.13;98614.50;4856858;28;103463;-75
2021/06/27 05:07:21;;;;;;;15.95;14.35;;;;;;;18.08;94.94;98614.28;4859940;28;102977;-76
2021/06/27 05:09:50;;;;;;;16.73;15.23;;;;;;;17.78;97.23;98616.47;4854371;28;103982;-75
2021/06/27 05:12:19;;;;;;;17.58;15.93;;;;;;;17.52;98.81;98615.56;4853519;28;103775;-76
2021/06/27 05:14:47;;;;;;;15.30;13.60;;;;;;;17.64;99.78;98609.03;4840420;28;103550;-74
2021/06/27 05:17:16;;;;;;;16.48;14.98;;;;;;;17.61;100.00;98604.00;4841040;28;103655;-71
2021/06/27 05:19:44;;;;;;;15.00;13.60;;;;;;;17.46;100.00;98602.84;4848624;28;104104;-72
2021/06/27 05:22:12;;;;;;;12.40;11.20;;;;;;;17.67;100.00;98603.38;4858197;28;103648;-72
2021/06/27 05:24:40;;;;;;;11.77;10.68;;;;;;;17.98;99.86;98594.84;4854138;28;103097;-71
2021/06/27 05:27:09;;;;;;;9.90;9.10;;;;;;;18.31;98.12;98591.31;4861977;28;103091;-73
2021/06/27 05:29:37;;;;;;;14.43;13.10;;;;;;;18.44;96.38;98586.34;4852990;28;103530;-73
2021/06/27 05:32:06;;;;;;;11.00;10.10;;;;;;;18.69;96.45;98590.78;4853611;28;104766;-73
2021/06/27 05:34:35;;;;;;;10.52;9.63;;;;;;;18.99;93.98;98587.47;4852205;28;103302;-73
2021/06/27 05:37:03;;;;;;;14.05;12.75;;;;;;;18.58;94.78;98593.78;4819415;29;102726;-72
2021/06/27 05:39:31;;;;;;;16.42;15.00;;;;;;;18.56;94.86;98594.91;4846362;28;105032;-72
2021/06/27 05:41:59;;;;;;;14.98;13.57;;;;;;;18.61;94.31;98593.41;4858927;28;103705;-71
2021/06/27 05:44:27;;;;;;;12.88;11.73;;;;;;;18.76;93.95;98591.78;4862902;28;103133;-71
2021/06/27 05:46:55;;;;;;;15.75;14.15;;;;;;;18.70;93.23;98599.63;4852274;28;102962;-71
2021/06/27 05:49:23;;;;;;;15.18;13.73;;;;;;;18.85;92.35;98601.50;4848432;28;104953;-85
2021/06/27 05:51:52;;;;;;;10.57;9.68;;;;;;;19.43;90.53;98596.03;4842417;28;103715;-77
2021/06/27 05:54:20;;;;;;;9.40;8.60;;;;;;;19.68;87.93;98594.13;4844690;29;103233;-74
2021/06/27 05:56:48;;;;;;;10.50;9.60;;;;;;;19.60;88.04;98596.84;4856574;28;103056;-75
2021/06/27 05:59:16;;;;;;;13.93;11.23;;;;;;;19.40;88.40;98600.88;4866479;28;103829;-75
2021/06/27 06:01:44;;;;;;;10.52;9.63;;;;;;;19.73;88.95;98602.53;4859917;28;103283;-75
2021/06/27 06:04:12;;;;;;;14.52;13.20;;;;;;;19.75;87.66;98588.94;4859725;28;103242;-76
2021/06/27 06:06:40;;;;;;;15.60;13.98;;;;;;;18.86;91.61;98597.81;4861427;28;103182;-74
2021/06/27 06:09:10;;;;;;;12.07;11.07;;;;;;;19.29;91.57;98587.78;4858126;28;104994;-75
2021/06/27 06:11:38;;;;;;;13.00;11.77;;;;;;;19.41;89.87;98586.50;4843442;28;104097;-79
2021/06/27 06:14:06;;;;;;;9.23;8.43;;;;;;;19.98;87.29;98590.72;4847773;28;103253;-77
2021/06/27 06:16:34;;;;;;;11.45;10.35;;;;;;;20.31;85.65;98601.34;4848650;28;103246;-77
2021/06/27 06:19:02;;;;;;;12.45;11.25;;;;;;;20.39;83.96;98596.78;4847294;28;103427;-77
2021/06/27 06:21:30;;;;;;;10.50;9.60;;;;;;;20.48;84.83;98589.53;4837611;28;105277;-74
2021/06/27 06:23:58;;;;;;;10.43;9.63;;;;;;;20.51;83.63;98592.72;4861274;28;102872;-74
2021/06/27 06:26:28;;;;;;;8.52;7.82;;;;;;;20.57;83.48;98596.53;4843659;28;104052;-75
2021/06/27 06:28:56;;;;;;;9.00;8.20;;;;;;;20.53;84.12;98595.19;4859506;28;103663;-75
2021/06/27 06:31:24;;;;;;;8.45;7.75;;;;;;;20.45;84.26;98605.97;4833446;29;106253;-74
2021/06/27 06:33:52;;;;;;;7.90;7.20;;;;;;;20.71;82.80;98596.63;4851721;28;103228;-75
2021/06/27 06:36:20;;;;;;;7.72;7.07;;;;;;;21.02;81.88;98596.59;4854875;28;102809;-77
2021/06/27 06:38:48;;;;;;;8.20;7.57;;;;;;;21.35;80.07;98592.66;4852724;28;105315;-74
2021/06/27 06:41:17;;;;;;;10.50;9.15;;;;;;;21.38;79.36;98586.06;4850999;28;103709;-75
2021/06/27 06:43:46;;;;;;;10.80;9.70;;;;;;;20.97;78.98;98588.19;4850616;28;103065;-77
2021/06/27 06:46:14;;;;;;;8.63;7.82;;;;;;;21.37;79.01;98584.38;4843605;28;102772;-80
2021/06/27 06:48:42;;;;;;;8.07;7.45;;;;;;;21.43;79.41;98583.66;4848020;28;103911;-78
2021/06/27 06:51:10;;;;;;;7.45;6.85;;;;;;;21.99;77.33;98584.13;4862960;28;104758;-75
2021/06/27 06:53:38;;;;;;;7.38;6.78;;;;;;;22.19;75.81;98575.31;4859953;28;103308;-76
2021/06/27 06:56:06;;;;;;;7.10;6.57;;;;;;;22.22;75.73;98569.56;4867114;28;103199;-75
2021/06/27 06:58:34;;;;;;;8.07;7.28;;;;;;;21.73;77.92;98571.09;4866149;28;103920;-76
2021/06/27 07:01:04;;;;;;;9.50;8.65;;;;;;;21.51;77.23;98572.00;4866198;28;103733;-75
2021/06/27 07:03:32;;;;;;;7.25;6.53;;;;;;;21.95;77.84;98570.25;4847260;28;103540;-75
2021/06/27 07:06:00;;;;;;;7.78;7.18;;;;;;;21.30;79.07;98572.72;4859406;28;103270;-75
2021/06/27 07:08:28;;;;;;;7.13;6.53;;;;;;;22.05;75.85;98568.09;4859922;28;104752;-76
2021/06/27 07:10:57;;;;;;;7.78;5.72;;;;;;;22.62;74.68;98575.41;4849779;28;103211;-74
2021/06/27 07:13:25;;;;;;;6.25;5.75;;;;;;;22.47;74.64;98578.97;4856059;28;103123;-75
2021/06/27 07:15:53;;;;;;;7.10;6.32;;;;;;;22.42;74.29;98569.81;4857457;28;103437;-75
2021/06/27 07:18:23;;;;;;;6.43;5.93;;;;;;;22.33;75.20;98571.78;4825639;28;105525;-77
2021/06/27 07:20:51;;;;;;;6.90;6.22;;;;;;;22.64;74.27;98571.53;4841668;28;103699;-73
2021/06/27 07:23:19;;;;;;;6.05;5.55;;;;;;;22.84;72.73;98569.06;4858019;28;103276;-75
2021/06/27 07:25:47;;;;;;;5.13;4.72;;;;;;;23.15;72.35;98561.50;4856369;28;103074;-77
2021/06/27 07:28:15;;;;;;;6.03;5.50;;;;;;;23.43;71.75;98569.63;4845363;29;104352;-79
2021/06/27 07:30:43;;;;;;;6.82;6.10;;;;;;;23.56;71.07;98565.19;4839053;28;104589;-82
2021/06/27 07:33:14;;;;;;;6.28;5.78;;;;;;;23.99;70.29;98576.69;4849684;28;103291;-80
2021/06/27 07:35:44;;;;;;;7.55;6.85;;;;;;;23.83;70.96;98571.56;4854725;28;103291;-76
2021/06/27 07:38:12;;;;;;;6.32;5.82;;;;;;;23.80;69.01;98565.75;4823983;28;103354;-75
2021/06/27 07:40:40;;;;;;;4.93;4.63;;;;;;;23.40;72.04;98570.03;4841078;28;103096;-76
2021/06/27 07:43:08;;;;;;;6.80;6.20;;;;;;;23.28;71.37;98561.59;4849530;28;103717;-76
2021/06/27 07:45:36;;;;;;;6.15;5.65;;;;;;;23.02;73.79;98567.59;4851780;28;103343;-74
2021/06/27 07:48:05;;;;;;;7.05;6.32;;;;;;;23.74;70.92;98566.56;4829115;28;105643;-75
2021/06/27 07:50:33;;;;;;;6.55;6.05;;;;;;;23.56;70.75;98559.78;4840712;28;104168;-75
2021/06/27 07:53:04;;;;;;;6.50;5.90;;;;;;;23.79;69.31;98559.53;4849837;28;103357;-73
2021/06/27 07:55:33;;;;;;;5.95;5.50;;;;;;;24.33;69.02;98562.34;4847601;28;103280;-75
2021/06/27 07:58:02;;;;;;;5.45;4.95;;;;;;;24.97;66.13;98560.06;4859761;28;104945;-76
2021/06/27 08:00:30;;;;;;;5.35;4.95;;;;;;;25.34;63.58;98545.13;4855659;28;104814;-75
2021/06/27 08:03:00;;;;;;;5.50;5.10;;;;;;;25.19;64.61;98545.34;4847926;28;103396;-76
2021/06/27 08:05:28;;;;;;;5.00;4.63;;;;;;;25.25;63.74;98543.66;4822381;28;103503;-74
2021/06/27 08:07:56;;;;;;;5.55;5.05;;;;;;;25.57;63.33;98544.75;4826418;28;104984;-73
2021/06/27 08:10:31;;;;;;;3.90;3.60;;;;;;;26.40;62.66;98549.31;4842713;28;103514;-76
2021/06/27 08:12:59;;;;;;;4.25;3.90;;;;;;;26.96;60.38;98542.16;4852374;28;103163;-77
2021/06/27 08:15:28;;;;;;;4.20;3.90;;;;;;;27.46;58.12;98550.34;4850126;28;103553;-79
2021/06/27 08:17:56;;;;;;;4.65;4.35;;;;;;;27.80;56.38;98544.41;4847133;28;105351;-76
2021/06/27 08:20:25;;;;;;;5.05;4.65;;;;;;;26.96;58.27;98555.72;4849870;28;104703;-76
2021/06/27 08:22:53;;;;;;;5.18;4.88;;;;;;;27.65;57.25;98546.63;4850586;28;103759;-75
2021/06/27 08:25:21;;;;;;;5.05;4.55;;;;;;;27.18;56.35;98549.91;4825104;28;103289;-76
2021/06/27 08:27:51;;;;;;;4.88;4.43;;;;;;;28.03;57.19;98550.03;4839514;28;104094;-76
2021/06/27 08:30:23;;;;;;;4.50;4.10;;;;;;;29.03;53.36;98545.81;4826264;29;105297;-77
2021/06/27 08:32:51;;;;;;;4.13;3.83;;;;;;;28.79;55.11;98546.81;4851308;28;103382;-77
2021/06/27 08:35:21;;;;;;;4.63;4.22;;;;;;;29.27;53.22;98541.31;4838395;28;103397;-73
2021/06/27 08:37:51;;;;;;;9.95;4.38;;;;;;;29.52;53.27;98539.22;4825263;29;103383;-76
2021/06/27 08:40:20;;;;;;;4.53;4.13;;;;;;;29.76;52.21;98535.41;4832703;29;103858;-74
2021/06/27 08:42:49;;;;;;;4.80;4.50;;;;;;;29.25;51.36;98541.53;4829786;29;103472;-74
2021/06/27 08:45:19;;;;;;;3.60;3.40;;;;;;;29.33;54.01;98534.09;4831135;28;104610;-73
2021/06/27 08:47:51;;;;;;;4.68;4.28;;;;;;;29.80;51.98;98530.34;4843250;28;107483;-73
2021/06/27 08:50:20;;;;;;;4.35;3.95;;;;;;;30.19;50.86;98529.59;4853360;28;104245;-74
2021/06/27 08:52:49;;;;;;;4.55;4.25;;;;;;;30.24;52.23;98524.25;4843389;28;103575;-74
2021/06/27 08:55:17;;;;;;;4.28;3.92;;;;;;;31.02;49.62;98521.72;4840062;28;102774;-74
2021/06/27 08:57:45;;;;;;;5.20;4.80;;;;;;;29.68;51.92;98515.88;4858893;28;103270;-74
2021/06/27 09:00:13;;;;;;;8.07;5.32;;;;;;;29.98;52.16;98522.03;4849281;28;103723;-74
2021/06/27 09:02:43;;;;;;;4.18;3.88;;;;;;;29.15;56.18;98522.22;4833689;29;103240;-73
2021/06/27 09:05:11;;;;;;;4.60;3.83;;;;;;;30.68;52.41;98524.63;4854005;28;103463;-74
2021/06/27 09:07:41;;;;;;;3.50;3.30;;;;;;;31.54;49.34;98511.44;4859061;28;105322;-74
2021/06/27 09:10:10;;;;;;;4.78;4.38;;;;;;;30.57;49.12;98522.75;4856459;28;103703;-74
2021/06/27 09:12:46;;;;;;;5.22;4.82;;;;;;;31.35;49.56;98510.03;4856407;28;103124;-75
2021/06/27 09:15:35;;;;;;;4.40;4.10;;;;;;;29.01;50.70;98509.88;4852181;28;103420;-73
2021/06/27 09:18:09;;;;;;;4.07;3.70;;;;;;;30.42;51.39;98502.31;4853041;28;103915;-73
2021/06/27 09:20:39;;;;;;;3.97;3.67;;;;;;;31.25;47.85;98500.81;4846880;28;103974;-74
2021/06/27 09:23:08;;;;;;;4.18;3.88;;;;;;;30.52;49.96;98506.28;4861361;28;102999;-73
2021/06/27 09:25:38;;;;;;;4.68;4.03;;;;;;;30.63;48.75;98508.13;4851621;28;102792;-78
2021/06/27 09:28:10;;;;;;;3.95;3.65;;;;;;;29.69;49.26;98498.50;4848568;28;104077;-77
2021/06/27 09:30:41;;;;;;;3.67;3.40;;;;;;;31.06;50.61;98496.69;4844358;28;104001;-77
2021/06/27 09:33:12;;;;;;;3.55;3.25;;;;;;;32.27;47.39;98493.91;4849484;28;102758;-77
2021/06/27 09:35:52;;;;;;;4.30;3.17;;;;;;;32.63;44.50;98492.44;4821238;29;103107;-77
2021/06/27 09:38:43;;;;;;;3.55;3.35;;;;;;;31.27;45.77;98491.31;4852001;28;103956;-75
2021/06/27 09:41:17;;;;;;;3.50;3.08;;;;;;;32.33;42.10;98498.34;4860331;28;104432;-75
2021/06/27 09:43:53;;;;;;;3.78;2.78;;;;;;;31.35;45.44;98490.94;4856587;28;105725;-77
2021/06/27 09:46:33;;;;;;;2.75;2.58;;;;;;;32.12;43.49;98485.50;4855552;28;107029;-75
2021/06/27 09:49:06;;;;;;;3.60;3.30;;;;;;;31.52;45.38;98497.19;4842657;28;103929;-75
2021/06/27 09:51:41;;;;;;;3.33;3.13;;;;;;;29.80;46.53;98492.25;4843167;28;111881;-75
2021/06/27 09:54:13;;;;;;;3.30;3.10;;;;;;;31.30;43.92;98499.00;4860601;28;103079;-78
2021/06/27 09:56:42;;;;;;;3.38;3.10;;;;;;;31.70;43.97;98495.28;4845578;28;103120;-76
2021/06/27 09:59:12;;;;;;;3.28;2.88;;;;;;;31.84;43.95;98491.09;4858826;28;104860;-76
2021/06/27 10:01:41;;;;;;;11.07;10.15;;;;;;;31.93;45.54;98492.34;4851913;28;103386;-76
2021/06/27 10:04:12;;;;;;;6.00;5.60;;;;;;;31.61;46.40;98496.81;4838149;28;103347;-76
2021/06/27 10:06:51;;;;;;;26.60;24.25;;;;;;;31.86;42.43;98495.25;4848831;28;103091;-76
2021/06/27 10:09:21;;;;;;;5.65;5.22;;;;;;;32.09;40.77;98502.41;4840378;28;103756;-76
2021/06/27 10:12:01;;;;;;;4.75;4.35;;;;;;;31.82;43.09;98498.75;4844971;28;103300;-76
2021/06/27 10:14:32;;;;;;;3.22;3.03;;;;;;;31.64;42.26;98493.56;4859735;28;102754;-76
2021/06/27 10:17:02;;;;;;;2.90;2.70;;;;;;;32.52;41.66;98490.63;4837072;28;103224;-78
2021/06/27 10:19:32;;;;;;;2.97;2.78;;;;;;;32.38;42.25;98487.47;4842647;28;106539;-78
2021/06/27 10:22:02;;;;;;;4.55;4.13;;;;;;;31.81;42.25;98476.06;4855874;28;103784;-82
2021/06/27 10:24:30;;;;;;;6.57;4.57;;;;;;;30.90;43.04;98473.75;4842596;28;103149;-83
2021/06/27 10:27:03;;;;;;;5.15;4.43;;;;;;;31.22;45.54;98476.75;4817976;29;103377;-81
2021/06/27 10:29:33;;;;;;;3.05;2.85;;;;;;;31.73;42.05;98471.03;4850112;28;103898;-81
2021/06/27 10:32:02;;;;;;;2.83;2.55;;;;;;;31.72;43.17;98469.38;4866010;28;105080;-78
2021/06/27 10:34:30;;;;;;;2.70;2.47;;;;;;;31.85;42.49;98471.75;4860895;28;103118;-77
2021/06/27 10:37:11;;;;;;;3.15;2.92;;;;;;;31.87;42.40;98472.31;4837769;28;102902;-75
2021/06/27 10:39:39;;;;;;;5.45;4.95;;;;;;;31.96;41.13;98469.97;4839817;29;106760;-75
2021/06/27 10:42:08;;;;;;;4.22;3.80;;;;;;;32.03;41.53;98473.38;4823526;28;104173;-77
2021/06/27 10:44:59;;;;;;;2.75;2.55;;;;;;;32.08;41.55;98476.19;4836762;28;103626;-72
2021/06/27 10:47:31;;;;;;;3.88;2.78;;;;;;;31.38;42.37;98476.75;4838544;28;104518;-73
2021/06/27 10:50:04;;;;;;;3.22;3.00;;;;;;;29.28;45.47;98473.06;4835266;28;104441;-70
2021/06/27 10:53:00;;;;;;;2.72;2.53;;;;;;;29.99;44.33;98474.69;4852276;28;103847;-70
2021/06/27 10:55:39;;;;;;;5.30;2.30;;;;;;;30.76;43.43;98477.88;4837239;28;104762;-71
2021/06/27 10:58:09;;;;;;;2.45;2.25;;;;;;;31.66;40.75;98480.50;4836603;28;103934;-73
2021/06/27 11:01:05;;;;;;;2.63;2.17;;;;;;;32.10;41.66;98479.47;4842567;28;104098;-82
2021/06/27 11:03:35;;;;;;;2.55;2.35;;;;;;;32.61;40.32;98473.56;4848365;28;105273;-71
2021/06/27 11:06:05;;;;;;;2.42;2.22;;;;;;;32.83;39.56;98473.50;4851227;28;102992;-73
2021/06/27 11:08:38;;;;;;;2.80;2.47;;;;;;;32.82;40.08;98463.63;4857485;28;103225;-72
2021/06/27 11:11:12;;;;;;;2.55;2.35;;;;;;;31.67;40.23;98468.47;4848411;28;103975;-72
2021/06/27 11:13:41;;;;;;;2.42;2.33;;;;;;;32.02;39.61;98469.00;4848156;28;103418;-89
2021/06/27 11:16:27;;;;;;;2.47;2.35;;;;;;;31.94;41.14;98463.94;4821491;28;104867;-75
2021/06/27 11:18:55;;;;;;;7.15;2.53;;;;;;;32.55;40.03;98455.44;4854269;28;103642;-76
2021/06/27 11:21:33;;;;;;;2.03;1.92;;;;;;;30.33;40.33;98456.59;4831042;29;103790;-80
2021/06/27 11:24:09;;;;;;;2.50;2.30;;;;;;;29.77;41.62;98449.13;4834346;28;103713;-75
2021/06/27 11:26:57;;;;;;;2.40;2.13;;;;;;;31.24;44.55;98445.44;4851781;28;102962;-76
2021/06/27 11:29:50;;;;;;;2.60;2.30;;;;;;;31.39;41.28;98451.13;4836269;28;103638;-77